Time;durP1;ratioP1;P1;durP2;ratioP2;P2;SDS_P1;SDS_P2;PMS_P1;PMS_P2;Temp;Humidity;BMP_temperature;BMP_pressure;BME280_temperature;BME280_humidity;BME280_pressure;Samples;Min_cycle;Max_cycle;Signal;HPM_P1;HPM_P2
2023/02/02 00:00:57;;;;;;;13.90;7.60;;;;;;;0.79;95.39;98667.12;105752;1259;60174;-75
2023/02/02 00:03:24;;;;;;;11.80;7.50;;;;;;;0.82;95.49;98667.08;105925;1254;73989;-77
2023/02/02 00:05:52;;;;;;;11.60;7.50;;;;;;;0.85;95.36;98661.80;105843;1255;69294;-75
2023/02/02 00:08:23;;;;;;;12.60;7.90;;;;;;;0.79;95.66;98668.55;105851;1259;71499;-74
2023/02/02 00:10:50;;;;;;;13.90;7.70;;;;;;;0.78;95.74;98666.23;105784;1253;62143;-74
2023/02/02 00:13:17;;;;;;;15.30;8.40;;;;;;;0.82;95.78;98665.98;105706;1253;60349;-73
2023/02/02 00:15:48;;;;;;;17.30;8.70;;;;;;;0.82;95.77;98670.58;105823;1253;71992;-75
2023/02/02 00:18:16;;;;;;;19.50;10.10;;;;;;;0.77;95.92;98670.13;105929;1253;71317;-74
2023/02/02 00:20:44;;;;;;;21.90;13.60;;;;;;;0.82;95.77;98666.75;105640;1253;72679;-74
2023/02/02 00:23:11;;;;;;;28.70;16.40;;;;;;;0.85;95.85;98673.09;105792;1253;60490;-74
2023/02/02 00:25:38;;;;;;;27.90;15.10;;;;;;;0.80;95.93;98666.19;105816;1253;61001;-75
2023/02/02 00:28:05;;;;;;;20.40;12.00;;;;;;;0.79;96.03;98665.79;105848;1257;72283;-72
2023/02/02 00:30:34;;;;;;;13.60;8.90;;;;;;;0.84;95.68;98661.14;105775;1260;70287;-75
2023/02/02 00:33:02;;;;;;;18.60;12.10;;;;;;;0.87;95.51;98659.80;105896;1253;72608;-76
2023/02/02 00:35:30;;;;;;;15.70;9.90;;;;;;;0.82;95.67;98656.10;105780;1254;60619;-76
2023/02/02 00:37:57;;;;;;;16.10;9.80;;;;;;;0.81;95.96;98655.48;105911;1260;60460;-76
2023/02/02 00:40:24;;;;;;;17.00;8.50;;;;;;;0.89;95.62;98650.27;105759;1253;73119;-73
2023/02/02 00:42:50;;;;;;;21.10;8.00;;;;;;;0.91;95.17;98655.00;106061;1255;70444;-73
2023/02/02 00:45:18;;;;;;;12.70;7.10;;;;;;;0.83;95.13;98658.77;106037;1253;71045;-75
2023/02/02 00:47:47;;;;;;;14.20;6.80;;;;;;;0.86;95.05;98651.00;105645;1253;61100;-77
2023/02/02 00:50:18;;;;;;;12.20;7.30;;;;;;;0.88;95.16;98656.48;105522;1255;61538;-75
2023/02/02 00:52:47;;;;;;;16.80;7.90;;;;;;;0.81;95.15;98655.46;105692;1253;72837;-75
2023/02/02 00:55:15;;;;;;;13.40;7.40;;;;;;;0.82;94.97;98651.42;105636;1260;68385;-73
2023/02/02 00:57:45;;;;;;;15.90;8.80;;;;;;;0.86;94.94;98645.99;105764;1254;70131;-74
2023/02/02 01:00:17;;;;;;;16.60;9.10;;;;;;;0.84;94.98;98648.77;105780;1253;59893;-73
2023/02/02 01:02:46;;;;;;;19.00;9.20;;;;;;;0.77;95.18;98650.21;105991;1259;59562;-74
2023/02/02 01:05:13;;;;;;;15.70;7.60;;;;;;;0.80;95.14;98651.00;105872;1257;73912;-75
2023/02/02 01:07:41;;;;;;;13.30;7.40;;;;;;;0.84;95.05;98648.77;105906;1254;69382;-72
2023/02/02 01:10:14;;;;;;;17.20;7.30;;;;;;;0.80;94.83;98656.07;105621;1253;73515;-73
2023/02/02 01:12:44;;;;;;;12.10;7.00;;;;;;;0.79;95.00;98649.93;105997;1257;60689;-73
2023/02/02 01:15:12;;;;;;;21.80;8.00;;;;;;;0.83;94.71;98649.56;106205;1254;61507;-73
2023/02/02 01:17:40;;;;;;;13.80;7.90;;;;;;;0.81;94.71;98649.58;105998;1255;72912;-71
2023/02/02 01:20:10;;;;;;;13.60;7.00;;;;;;;0.75;94.81;98651.98;105853;1255;71593;-73
2023/02/02 01:22:37;;;;;;;13.80;6.90;;;;;;;0.80;94.81;98653.52;105705;1258;70534;-73
2023/02/02 01:25:04;;;;;;;13.20;8.40;;;;;;;0.80;94.70;98652.41;105653;1253;60558;-72
2023/02/02 01:27:31;;;;;;;18.00;7.60;;;;;;;0.75;94.96;98649.55;105883;1254;61362;-72
2023/02/02 01:29:58;;;;;;;16.30;7.60;;;;;;;0.77;94.79;98648.30;105874;1258;73920;-71
2023/02/02 01:32:25;;;;;;;13.00;7.10;;;;;;;0.81;94.79;98649.02;106070;1253;71353;-71
2023/02/02 01:34:52;;;;;;;11.80;7.20;;;;;;;0.76;94.65;98643.18;106056;1253;70496;-72
2023/02/02 01:37:20;;;;;;;15.10;7.20;;;;;;;0.78;94.68;98642.98;107421;1254;61157;-74
2023/02/02 01:39:51;;;;;;;9.70;6.90;;;;;;;0.80;94.52;98643.90;108725;1253;60130;-73
2023/02/02 01:42:21;;;;;;;14.20;7.10;;;;;;;0.75;94.59;98645.50;109205;1254;71945;-72
2023/02/02 01:44:51;;;;;;;15.40;7.50;;;;;;;0.78;94.53;98647.66;109055;1253;70045;-72
2023/02/02 01:47:21;;;;;;;15.50;6.80;;;;;;;0.85;94.38;98647.06;109083;1254;72307;-74
2023/02/02 01:49:48;;;;;;;13.10;7.80;;;;;;;0.85;94.32;98649.71;108955;1254;58617;-76
2023/02/02 01:52:15;;;;;;;10.70;7.60;;;;;;;0.80;94.25;98649.66;109223;1253;59885;-77
2023/02/02 01:54:51;;;;;;;11.40;7.00;;;;;;;0.85;94.21;98649.94;109136;1253;71107;-75
2023/02/02 01:57:43;;;;;;;18.20;9.10;;;;;;;0.90;93.88;98652.24;108589;1255;70131;-77
2023/02/02 02:00:13;;;;;;;14.10;7.80;;;;;;;0.86;94.00;98654.16;108933;1253;72599;-80
2023/02/02 02:02:42;;;;;;;14.40;7.70;;;;;;;0.82;93.87;98648.40;109247;1254;60916;-79
2023/02/02 02:05:10;;;;;;;10.50;7.30;;;;;;;0.89;93.92;98649.90;109204;1253;59241;-78
2023/02/02 02:07:39;;;;;;;13.90;7.90;;;;;;;0.91;93.74;98651.29;108997;1253;73757;-78
2023/02/02 02:10:07;;;;;;;14.90;8.10;;;;;;;0.86;93.81;98652.45;109027;1255;70440;-76
2023/02/02 02:12:34;;;;;;;13.10;8.70;;;;;;;0.87;93.65;98653.25;108653;1254;71573;-79
2023/02/02 02:18:22;;;;;;;15.30;8.30;;;;;;;0.90;93.34;98653.63;107114;1253;60352;-79
2023/02/02 02:27:36;;;;;;;17.10;8.00;;;;;;;0.82;93.33;98656.63;106255;1253;73852;-77
2023/02/02 02:30:32;;;;;;;17.90;8.00;;;;;;;0.84;93.41;98653.80;105943;1253;62227;-76
2023/02/02 02:33:06;;;;;;;18.00;9.00;;;;;;;0.87;93.18;98650.91;106085;1257;61367;-73
2023/02/02 02:35:40;;;;;;;14.50;8.30;;;;;;;0.79;93.38;98649.51;106274;1254;74929;-74
2023/02/02 02:38:10;;;;;;;;;;;;;;;0.77;93.61;98657.52;106171;1258;71409;-74
2023/02/02 02:40:44;;;;;;;17.40;8.50;;;;;;;0.83;93.53;98658.14;105784;1255;71619;-72
2023/02/02 02:43:17;;;;;;;15.80;7.20;;;;;;;0.82;93.51;98657.97;105698;1253;60487;-73
2023/02/02 02:45:44;;;;;;;17.70;8.20;;;;;;;0.75;93.78;98661.21;105777;1256;60471;-75
2023/02/02 02:48:11;;;;;;;17.10;7.90;;;;;;;0.72;93.89;98666.17;105511;1256;74834;-74
2023/02/02 02:50:41;;;;;;;16.50;9.60;;;;;;;0.77;93.80;98668.85;105692;1253;71680;-72
2023/02/02 02:53:11;;;;;;;18.70;9.50;;;;;;;0.77;93.86;98670.11;105746;1258;72983;-77
2023/02/02 02:56:00;;;;;;;15.80;9.40;;;;;;;0.70;94.03;98670.54;105831;1257;61176;-73
2023/02/02 02:58:52;;;;;;;18.90;9.80;;;;;;;0.76;94.13;98672.30;105780;1254;61391;-76
2023/02/02 03:01:39;;;;;;;17.00;9.90;;;;;;;0.76;94.16;98676.42;105849;1253;74847;-76
2023/02/02 03:04:14;;;;;;;17.80;9.60;;;;;;;0.70;94.29;98671.22;105881;1253;69114;-73
2023/02/02 03:06:51;;;;;;;14.60;9.40;;;;;;;0.77;94.03;98676.53;105865;1254;73556;-71
2023/02/02 03:09:20;;;;;;;19.80;9.80;;;;;;;0.80;94.00;98676.42;105934;1253;60840;-70
2023/02/02 03:11:47;;;;;;;21.10;11.10;;;;;;;0.74;94.09;98679.41;105531;1254;61415;-73
2023/02/02 03:14:14;;;;;;;14.80;9.70;;;;;;;0.75;94.14;98676.71;105586;1253;74697;-71
2023/02/02 03:16:41;;;;;;;19.20;10.90;;;;;;;0.82;93.90;98680.17;105259;1260;68488;-69
2023/02/02 03:19:08;;;;;;;21.60;11.90;;;;;;;0.78;94.08;98679.23;105537;1253;73525;-74
2023/02/02 03:21:36;;;;;;;22.40;10.60;;;;;;;0.74;94.22;98682.00;105816;1253;62151;-77
2023/02/02 03:24:03;;;;;;;19.40;10.70;;;;;;;0.81;93.96;98682.46;105807;1253;60909;-73
2023/02/02 03:26:30;;;;;;;16.10;10.60;;;;;;;0.83;93.74;98680.90;105837;1253;75061;-74
2023/02/02 03:28:56;;;;;;;20.00;12.60;;;;;;;0.78;93.95;98680.64;105751;1258;68984;-73
2023/02/02 03:31:25;;;;;;;19.00;12.30;;;;;;;0.83;93.90;98685.84;105832;1254;71797;-72
2023/02/02 03:33:53;;;;;;;17.40;9.80;;;;;;;0.88;93.51;98685.05;105887;1253;61331;-71
2023/02/02 03:36:19;;;;;;;20.60;10.20;;;;;;;0.86;93.61;98683.77;105959;1254;60470;-75
2023/02/02 03:38:47;;;;;;;18.00;10.10;;;;;;;0.79;93.88;98689.63;105874;1253;75489;-72
2023/02/02 03:41:14;;;;;;;15.20;10.00;;;;;;;0.80;93.78;98686.06;105671;1253;68086;-76
2023/02/02 03:43:41;;;;;;;17.80;11.00;;;;;;;0.86;93.73;98686.24;105751;1253;70648;-76
2023/02/02 03:46:08;;;;;;;19.30;10.50;;;;;;;0.84;93.72;98687.49;105759;1253;60521;-78
2023/02/02 03:48:36;;;;;;;14.00;9.10;;;;;;;0.76;93.86;98688.45;105701;1253;60455;-76
2023/02/02 03:51:21;;;;;;;16.10;10.30;;;;;;;0.79;93.83;98689.80;105639;1254;73844;-73
2023/02/02 03:53:48;;;;;;;16.30;9.50;;;;;;;0.85;93.74;98687.40;105630;1259;69570;-76
2023/02/02 03:56:15;;;;;;;17.00;9.70;;;;;;;0.80;93.76;98691.27;105652;1256;73984;-73
2023/02/02 03:58:42;;;;;;;14.20;9.30;;;;;;;0.76;93.79;98685.67;105849;1254;62154;-75
2023/02/02 04:01:10;;;;;;;15.60;9.40;;;;;;;0.81;93.81;98684.96;105850;1253;60460;-72
2023/02/02 04:03:38;;;;;;;15.10;8.70;;;;;;;0.82;93.71;98684.00;105567;1254;74047;-74
2023/02/02 04:06:05;;;;;;;13.80;8.50;;;;;;;0.74;93.93;98683.90;105910;1253;72261;-72
2023/02/02 04:08:33;;;;;;;12.10;8.00;;;;;;;0.79;93.86;98688.98;105885;1254;72081;-74
2023/02/02 04:11:00;;;;;;;12.80;8.70;;;;;;;0.81;93.96;98686.67;105512;1253;60522;-72
2023/02/02 04:13:26;;;;;;;12.30;8.60;;;;;;;0.74;94.00;98691.14;105570;1258;60449;-71
2023/02/02 04:15:58;;;;;;;16.60;9.20;;;;;;;0.73;94.02;98690.54;105577;1260;72824;-74
2023/02/02 04:18:25;;;;;;;15.10;8.10;;;;;;;0.77;93.89;98684.75;105814;1253;70360;-73
2023/02/02 04:20:57;;;;;;;17.60;10.10;;;;;;;0.75;94.06;98688.73;105719;1253;73496;-75
2023/02/02 04:23:24;;;;;;;15.70;8.70;;;;;;;0.68;94.22;98688.86;105894;1253;60465;-75
2023/02/02 04:25:51;;;;;;;12.10;8.30;;;;;;;0.67;94.35;98692.56;105787;1256;60443;-74
2023/02/02 04:28:18;;;;;;;14.40;8.70;;;;;;;0.74;94.07;98691.47;107113;1253;72048;-76
2023/02/02 04:30:45;;;;;;;16.30;8.50;;;;;;;0.74;94.19;98690.25;107454;1254;69057;-73
2023/02/02 04:33:12;;;;;;;17.00;8.80;;;;;;;0.67;94.35;98692.25;107400;1256;71730;-73
2023/02/02 04:35:39;;;;;;;14.40;8.60;;;;;;;0.70;94.25;98693.20;106495;1253;60478;-73
2023/02/02 04:38:06;;;;;;;13.00;8.10;;;;;;;0.76;94.14;98691.83;105863;1253;60504;-74
2023/02/02 04:40:33;;;;;;;16.70;9.50;;;;;;;0.73;94.12;98698.17;105867;1254;71866;-76
2023/02/02 04:43:00;;;;;;;14.20;8.10;;;;;;;0.68;94.21;98698.46;105752;1256;69865;-75
2023/02/02 04:45:30;;;;;;;18.10;9.90;;;;;;;0.73;94.15;98697.48;105923;1254;73559;-75
2023/02/02 04:47:57;;;;;;;18.20;11.00;;;;;;;0.73;94.17;98700.46;105661;1253;60501;-76
2023/02/02 04:50:24;;;;;;;19.20;10.90;;;;;;;0.66;94.25;98701.73;105856;1253;60346;-73
2023/02/02 04:52:51;;;;;;;17.20;9.30;;;;;;;0.71;94.21;98703.27;105473;1253;75519;-78
2023/02/02 04:55:19;;;;;;;17.50;10.00;;;;;;;0.76;94.04;98702.60;105786;1256;71464;-75
2023/02/02 04:57:46;;;;;;;20.50;9.70;;;;;;;0.71;94.07;98706.00;105892;1257;73165;-76
2023/02/02 05:00:13;;;;;;;17.10;8.60;;;;;;;0.67;94.10;98703.71;105506;1253;61944;-74
2023/02/02 05:02:40;;;;;;;16.50;8.40;;;;;;;0.70;94.10;98706.23;105826;1253;60797;-74
2023/02/02 05:05:09;;;;;;;17.10;8.70;;;;;;;0.73;94.04;98704.95;105929;1256;72815;-74
2023/02/02 05:07:36;;;;;;;15.80;9.00;;;;;;;0.67;94.20;98708.64;105958;1258;68368;-78
2023/02/02 05:10:05;;;;;;;21.50;10.90;;;;;;;0.61;94.43;98707.88;105549;1260;72578;-73
2023/02/02 05:12:36;;;;;;;15.50;10.10;;;;;;;0.64;94.46;98710.40;105690;1254;62218;-80
2023/02/02 05:15:04;;;;;;;20.30;12.10;;;;;;;0.67;94.36;98711.91;105838;1253;60464;-80
2023/02/02 05:17:31;;;;;;;21.20;11.30;;;;;;;0.62;94.45;98717.10;106349;1257;73611;-78
2023/02/02 05:19:58;;;;;;;16.20;9.80;;;;;;;0.62;94.54;98715.80;106592;1253;71316;-76
2023/02/02 05:22:25;;;;;;;17.80;11.10;;;;;;;0.64;94.40;98711.10;106348;1258;74642;-75
2023/02/02 05:24:53;;;;;;;17.30;10.00;;;;;;;0.67;94.41;98714.50;105797;1253;60640;-76
2023/02/02 05:27:20;;;;;;;18.90;10.80;;;;;;;0.62;94.53;98713.00;106249;1257;60361;-75
2023/02/02 05:29:47;;;;;;;17.20;10.30;;;;;;;0.59;94.66;98717.27;105924;1253;73784;-78
2023/02/02 05:32:13;;;;;;;20.40;9.30;;;;;;;0.64;94.45;98714.41;107240;1257;70373;-75
2023/02/02 05:34:41;;;;;;;15.80;10.30;;;;;;;0.70;94.26;98715.52;105989;1259;72684;-78
2023/02/02 05:37:09;;;;;;;17.70;10.10;;;;;;;0.68;94.38;98719.55;106085;1253;60518;-76
2023/02/02 05:39:36;;;;;;;17.10;10.40;;;;;;;0.62;94.57;98723.16;105903;1258;61601;-76
2023/02/02 05:42:04;;;;;;;15.60;9.90;;;;;;;0.65;94.60;98723.09;105828;1253;74595;-78
2023/02/02 05:44:30;;;;;;;16.60;9.70;;;;;;;0.71;94.58;98725.05;105933;1254;72674;-78
2023/02/02 05:46:57;;;;;;;19.40;9.00;;;;;;;0.68;94.65;98725.48;105772;1254;75321;-80
2023/02/02 05:49:24;;;;;;;15.50;9.90;;;;;;;0.62;94.77;98726.82;105926;1254;60448;-79
2023/02/02 05:51:54;;;;;;;15.50;11.00;;;;;;;0.67;94.60;98731.09;106114;1258;61291;-77
2023/02/02 05:54:20;;;;;;;13.40;9.40;;;;;;;0.71;94.57;98733.41;105887;1256;73634;-75
2023/02/02 05:56:48;;;;;;;18.30;10.90;;;;;;;0.70;94.64;98734.15;105665;1256;69796;-72
2023/02/02 05:59:16;;;;;;;18.40;10.30;;;;;;;0.63;94.86;98739.95;105818;1258;73644;-74
2023/02/02 06:01:44;;;;;;;15.00;10.90;;;;;;;0.61;95.12;98744.15;105806;1254;61903;-70
2023/02/02 06:04:11;;;;;;;15.50;10.30;;;;;;;0.66;95.04;98741.29;105830;1254;61635;-74
2023/02/02 06:06:38;;;;;;;14.60;10.30;;;;;;;0.68;95.00;98742.51;105845;1254;74191;-75
2023/02/02 06:09:06;;;;;;;15.60;10.50;;;;;;;0.67;95.09;98752.20;105707;1254;69107;-75
2023/02/02 06:11:33;;;;;;;18.40;11.10;;;;;;;0.61;95.24;98751.12;105699;1255;72302;-78
2023/02/02 06:14:01;;;;;;;18.80;11.30;;;;;;;0.64;95.26;98750.02;105659;1261;60907;-76
2023/02/02 06:16:28;;;;;;;19.20;10.60;;;;;;;0.63;95.25;98758.77;105680;1256;60451;-78
2023/02/02 06:18:55;;;;;;;18.40;11.10;;;;;;;0.61;95.44;98752.70;105874;1253;74891;-76
2023/02/02 06:21:23;;;;;;;18.80;11.80;;;;;;;0.67;95.58;98759.51;105983;1253;70410;-75
2023/02/02 06:23:50;;;;;;;18.40;11.70;;;;;;;0.65;95.27;98762.26;106156;1256;71849;-79
2023/02/02 06:26:17;;;;;;;16.50;10.00;;;;;;;0.65;95.11;98766.81;105606;1256;60487;-73
2023/02/02 06:28:47;;;;;;;19.30;11.60;;;;;;;0.72;94.85;98766.00;105788;1253;61595;-77
2023/02/02 06:31:17;;;;;;;19.90;10.50;;;;;;;0.74;94.64;98773.21;106742;1254;74861;-75
2023/02/02 06:33:46;;;;;;;15.20;10.70;;;;;;;0.72;94.63;98769.16;107132;1254;71633;-73
2023/02/02 06:36:12;;;;;;;19.20;10.30;;;;;;;0.80;94.54;98771.30;106546;1255;70916;-74
2023/02/02 06:38:40;;;;;;;18.40;12.20;;;;;;;0.81;94.32;98772.05;108042;1254;60352;-78
2023/02/02 06:41:07;;;;;;;23.80;12.00;;;;;;;0.79;94.39;98771.77;108233;1254;60651;-76
2023/02/02 06:43:34;;;;;;;20.10;11.40;;;;;;;0.86;94.03;98773.81;108111;1259;74599;-74
2023/02/02 06:46:01;;;;;;;21.30;13.00;;;;;;;0.92;93.60;98775.12;106592;1253;70143;-74
2023/02/02 06:48:29;;;;;;;22.70;12.20;;;;;;;0.88;93.11;98778.61;107761;1253;71661;-76
2023/02/02 06:50:58;;;;;;;18.10;10.50;;;;;;;0.93;93.10;98775.64;107623;1254;60333;-73
2023/02/02 06:53:26;;;;;;;16.70;10.30;;;;;;;0.95;92.64;98782.41;107998;1255;60474;-69
2023/02/02 06:55:55;;;;;;;20.40;10.40;;;;;;;0.92;92.60;98778.80;106805;1256;73479;-72
2023/02/02 06:58:22;;;;;;;19.00;11.20;;;;;;;0.96;91.90;98781.06;106423;1254;70274;-72
2023/02/02 07:00:49;;;;;;;18.40;11.60;;;;;;;1.04;91.90;98782.02;107451;1254;71749;-75
2023/02/02 07:03:17;;;;;;;20.50;12.50;;;;;;;1.04;91.77;98785.69;108922;1253;58240;-76
2023/02/02 07:05:44;;;;;;;18.80;11.60;;;;;;;1.01;91.76;98784.70;109451;1253;60588;-75
2023/02/02 07:08:12;;;;;;;21.10;13.00;;;;;;;1.10;91.41;98787.26;109292;1254;73577;-75
2023/02/02 07:10:39;;;;;;;16.70;11.70;;;;;;;1.16;91.09;98791.81;108916;1253;70140;-76
2023/02/02 07:13:27;;;;;;;18.90;12.10;;;;;;;1.12;90.79;98789.48;108954;1254;72655;-75
2023/02/02 07:15:57;;;;;;;18.30;11.70;;;;;;;1.18;90.61;98791.27;108930;1253;60823;-76
2023/02/02 07:18:24;;;;;;;18.30;11.30;;;;;;;1.23;90.52;98789.31;109319;1253;59935;-75
2023/02/02 07:20:51;;;;;;;17.80;11.90;;;;;;;1.20;90.42;98788.33;108956;1255;73881;-79
2023/02/02 07:23:18;;;;;;;17.70;9.80;;;;;;;1.23;90.30;98789.80;109092;1253;68717;-75
2023/02/02 07:25:46;;;;;;;15.40;11.00;;;;;;;1.31;89.96;98788.20;109383;1253;71365;-79
2023/02/02 07:28:13;;;;;;;15.90;11.00;;;;;;;1.32;89.60;98788.33;108885;1254;59556;-76
2023/02/02 07:30:40;;;;;;;18.00;11.20;;;;;;;1.27;89.56;98795.69;108571;1254;60317;-76
2023/02/02 07:33:08;;;;;;;19.20;11.50;;;;;;;1.31;89.34;98790.27;109087;1254;71686;-75
2023/02/02 07:35:35;;;;;;;20.90;13.30;;;;;;;1.38;88.97;98793.40;109398;1253;68649;-76
2023/02/02 07:38:01;;;;;;;18.80;11.60;;;;;;;1.41;89.16;98794.58;108635;1254;72423;-76
2023/02/02 07:40:28;;;;;;;17.90;11.30;;;;;;;1.36;88.96;98791.77;108557;1258;59190;-72
2023/02/02 07:42:59;;;;;;;16.80;10.70;;;;;;;1.36;89.09;98794.76;106207;1253;60551;-76
2023/02/02 07:45:26;;;;;;;16.20;11.40;;;;;;;1.45;89.03;98787.71;105781;1253;74861;-75
2023/02/02 07:47:56;;;;;;;17.20;11.50;;;;;;;1.43;88.85;98792.27;105741;1253;71419;-77
2023/02/02 07:50:24;;;;;;;16.20;10.70;;;;;;;1.39;88.93;98792.20;105789;1255;72861;-75
2023/02/02 07:52:51;;;;;;;15.20;11.20;;;;;;;1.47;88.86;98791.92;105671;1254;61085;-77
2023/02/02 07:55:20;;;;;;;14.80;11.70;;;;;;;1.50;88.45;98794.98;105713;1260;60426;-76
2023/02/02 07:57:47;;;;;;;15.40;10.60;;;;;;;1.46;88.65;98796.21;106021;1256;74810;-75
2023/02/02 08:00:16;;;;;;;17.50;12.00;;;;;;;1.53;89.03;98791.17;105990;1255;69234;-76
2023/02/02 08:02:43;;;;;;;21.70;13.80;;;;;;;1.64;89.06;98796.77;105854;1253;72737;-76
2023/02/02 08:05:10;;;;;;;18.40;12.20;;;;;;;1.64;88.42;98801.30;106261;1253;60499;-78
2023/02/02 08:07:40;;;;;;;18.10;11.20;;;;;;;1.68;88.17;98802.50;106306;1254;61822;-77
2023/02/02 08:10:08;;;;;;;16.20;11.40;;;;;;;1.75;87.69;98802.93;106063;1254;72989;-77
2023/02/02 08:12:38;;;;;;;17.60;12.50;;;;;;;1.70;87.70;98797.05;106166;1256;70381;-76
2023/02/02 08:15:07;;;;;;;16.90;12.60;;;;;;;1.64;87.89;98804.45;106676;1260;73454;-74
2023/02/02 08:17:34;;;;;;;19.70;13.80;;;;;;;1.73;87.77;98806.95;106002;1253;61155;-76
2023/02/02 08:20:01;;;;;;;18.80;13.10;;;;;;;1.82;87.90;98810.86;105677;1255;60419;-74
2023/02/02 08:22:27;;;;;;;18.70;13.60;;;;;;;1.85;87.77;98808.55;105859;1258;74896;-77
2023/02/02 08:24:54;;;;;;;21.20;13.10;;;;;;;1.91;87.07;98815.66;105723;1256;60577;-74
2023/02/02 08:27:20;;;;;;;19.30;12.30;;;;;;;1.98;86.78;98816.44;105794;1258;71561;-74
2023/02/02 08:29:47;;;;;;;18.50;12.80;;;;;;;1.95;86.61;98817.70;105504;1255;60456;-72
2023/02/02 08:32:14;;;;;;;18.00;13.00;;;;;;;1.92;86.65;98819.02;105648;1259;61363;-74
2023/02/02 08:34:41;;;;;;;19.80;14.70;;;;;;;2.01;86.57;98819.33;105799;1254;73170;-76
2023/02/02 08:37:08;;;;;;;21.50;15.50;;;;;;;2.06;86.69;98820.98;105712;1256;71325;-77
2023/02/02 08:39:38;;;;;;;19.10;14.90;;;;;;;2.03;86.85;98812.99;105853;1253;72822;-77
2023/02/02 08:42:04;;;;;;;17.90;12.30;;;;;;;2.03;87.22;98815.80;105607;1255;61327;-80
2023/02/02 08:44:32;;;;;;;15.00;11.80;;;;;;;2.16;86.94;98812.02;105747;1260;61223;-75
2023/02/02 08:47:19;;;;;;;21.10;13.60;;;;;;;2.25;86.72;98818.58;105742;1256;72545;-77
2023/02/02 08:49:46;;;;;;;17.40;13.10;;;;;;;2.24;86.38;98811.48;105886;1256;71080;-76
2023/02/02 08:52:13;;;;;;;20.00;12.60;;;;;;;2.25;85.96;98820.04;105569;1254;72513;-77
2023/02/02 08:54:40;;;;;;;16.80;11.90;;;;;;;2.32;85.92;98817.44;105718;1259;60430;-76
2023/02/02 08:57:07;;;;;;;18.00;13.30;;;;;;;2.31;85.62;98823.08;105857;1254;61273;-77
2023/02/02 08:59:34;;;;;;;21.50;15.00;;;;;;;2.26;86.00;98821.66;105843;1253;72084;-78
2023/02/02 09:02:00;;;;;;;16.80;11.70;;;;;;;2.25;85.81;98823.16;105679;1256;70321;-79
2023/02/02 09:04:31;;;;;;;15.70;11.80;;;;;;;2.36;86.21;98820.56;105765;1258;72191;-75
2023/02/02 09:06:58;;;;;;;17.50;12.70;;;;;;;2.43;86.17;98818.55;105777;1259;60413;-78
2023/02/02 09:09:25;;;;;;;16.00;11.60;;;;;;;2.45;85.91;98822.91;105595;1261;60500;-78
2023/02/02 09:11:52;;;;;;;12.60;10.50;;;;;;;2.50;85.28;98819.14;105870;1253;72993;-78
2023/02/02 09:14:22;;;;;;;14.60;10.50;;;;;;;2.61;84.94;98819.03;105418;1256;69398;-78
2023/02/02 09:16:49;;;;;;;12.00;9.60;;;;;;;2.63;84.77;98815.83;105247;1254;72855;-77
2023/02/02 09:19:16;;;;;;;11.00;8.50;;;;;;;2.66;84.47;98816.63;105222;1253;62394;-77
2023/02/02 09:21:43;;;;;;;11.50;8.80;;;;;;;2.77;84.33;98815.48;105841;1261;61509;-79
2023/02/02 09:24:11;;;;;;;14.60;10.40;;;;;;;2.82;83.75;98813.77;105827;1254;72999;-82
2023/02/02 09:26:39;;;;;;;13.10;10.60;;;;;;;2.73;83.34;98818.56;106437;1254;71359;-81
2023/02/02 09:29:07;;;;;;;9.70;8.50;;;;;;;2.67;83.63;98818.61;105856;1253;74048;-79
2023/02/02 09:31:35;;;;;;;12.30;9.10;;;;;;;2.68;83.69;98813.11;106179;1259;60534;-79
2023/02/02 09:34:03;;;;;;;12.70;9.80;;;;;;;2.65;84.02;98822.15;106295;1253;61228;-82
2023/02/02 09:36:30;;;;;;;13.00;10.00;;;;;;;2.53;83.90;98817.45;106843;1254;74829;-81
2023/02/02 09:38:57;;;;;;;12.90;9.20;;;;;;;2.49;84.15;98820.09;107311;1254;70576;-80
2023/02/02 09:41:33;;;;;;;13.10;10.30;;;;;;;2.47;84.43;98818.66;107276;1255;71863;-79
2023/02/02 09:44:23;;;;;;;12.90;9.90;;;;;;;2.38;84.61;98820.03;106541;1259;59777;-79
2023/02/02 09:47:17;;;;;;;11.10;8.60;;;;;;;2.31;84.98;98817.34;108215;1254;60356;-82
2023/02/02 09:50:06;;;;;;;14.30;9.90;;;;;;;2.33;85.09;98815.38;107804;1256;72722;-80
2023/02/02 09:52:39;;;;;;;13.30;10.50;;;;;;;2.24;85.30;98816.79;107883;1253;68643;-82
2023/02/02 09:55:14;;;;;;;11.10;9.40;;;;;;;2.15;85.86;98816.77;107599;1256;71998;-80
2023/02/02 09:57:48;;;;;;;11.90;9.70;;;;;;;2.21;85.94;98816.10;106922;1258;61279;-79
2023/02/02 10:00:36;;;;;;;11.50;10.20;;;;;;;2.24;85.91;98813.97;107401;1256;60432;-80
2023/02/02 10:03:09;;;;;;;12.90;9.90;;;;;;;2.18;86.06;98809.55;106993;1258;73617;-79
2023/02/02 10:06:00;;;;;;;15.80;10.80;;;;;;;2.19;86.35;98809.88;106052;1256;326745;-77
2023/02/02 10:09:47;;;;;;;13.90;10.70;;;;;;;2.29;86.02;98808.64;103307;1292;600289;-79
2023/02/02 10:12:46;;;;;;;15.60;11.20;;;;;;;2.23;86.34;98811.95;105107;1272;59319;-81
2023/02/02 10:15:31;;;;;;;14.20;11.10;;;;;;;2.16;86.21;98814.69;105245;1267;60278;-80
2023/02/02 10:18:09;;;;;;;13.20;9.90;;;;;;;2.18;86.14;98815.52;104997;1274;71338;-76
2023/02/02 10:20:53;;;;;;;13.50;10.60;;;;;;;2.15;86.26;98813.00;105209;1268;69911;-80
2023/02/02 10:23:44;;;;;;;18.50;12.50;;;;;;;2.06;86.66;98812.02;105021;1264;145913;-76
2023/02/02 10:26:15;;;;;;;18.60;13.50;;;;;;;2.15;86.96;98814.08;105275;1263;60828;-81
2023/02/02 10:29:07;;;;;;;14.60;11.40;;;;;;;2.38;86.66;98807.13;106180;1266;59386;-79
2023/02/02 10:31:41;;;;;;;16.10;11.10;;;;;;;2.75;85.27;98810.76;106907;1265;71338;-80
2023/02/02 10:34:27;;;;;;;12.20;9.70;;;;;;;3.35;83.85;98806.59;105520;1269;70148;-79
2023/02/02 10:37:12;;;;;;;14.40;10.80;;;;;;;4.24;81.70;98806.80;106405;1263;72618;-85
2023/02/02 10:40:04;;;;;;;14.60;11.20;;;;;;;4.83;77.89;98812.67;106582;1264;59633;-83
2023/02/02 10:45:49;;;;;;;13.00;9.90;;;;;;;4.54;76.37;98815.77;106721;1253;73785;-83
2023/02/02 10:48:22;;;;;;;13.60;9.90;;;;;;;4.38;76.75;98812.80;106335;1253;70282;-81
2023/02/02 10:50:54;;;;;;;11.90;10.50;;;;;;;4.26;76.75;98811.72;106280;1253;73463;-83
2023/02/02 10:53:24;;;;;;;12.60;11.00;;;;;;;4.01;76.82;98811.61;106014;1257;59737;-78
2023/02/02 10:55:57;;;;;;;13.90;11.40;;;;;;;3.76;77.70;98806.39;106137;1253;61554;-81
2023/02/02 10:58:39;;;;;;;12.70;10.40;;;;;;;3.53;78.36;98815.05;106126;1253;72997;-83
2023/02/02 11:01:10;;;;;;;10.80;8.80;;;;;;;3.44;78.62;98812.20;107513;1251;70322;-80
2023/02/02 11:03:39;;;;;;;10.80;8.80;;;;;;;3.51;78.70;98813.81;106763;1254;72144;-80
2023/02/02 11:08:59;;;;;;;13.10;9.70;;;;;;;3.96;78.19;98807.89;106507;1253;59809;-78
2023/02/02 11:11:38;;;;;;;15.70;10.80;;;;;;;4.52;76.63;98811.56;106306;1258;71075;-80
2023/02/02 11:14:07;;;;;;;15.40;10.80;;;;;;;4.84;75.47;98810.31;105952;1260;70423;-80
2023/02/02 11:16:38;;;;;;;18.30;13.50;;;;;;;4.81;74.64;98814.48;106281;1254;73889;-80
2023/02/02 11:19:16;;;;;;;16.50;12.10;;;;;;;4.58;74.75;98821.13;105770;1254;60975;-80
2023/02/02 11:21:50;;;;;;;14.30;12.00;;;;;;;4.32;74.86;98816.93;106081;1256;60644;-81
2023/02/02 11:24:40;;;;;;;19.40;11.00;;;;;;;4.04;75.47;98821.37;106051;1258;72460;-80
2023/02/02 11:27:28;;;;;;;15.00;11.50;;;;;;;3.88;76.47;98818.58;106835;1253;71269;-78
2023/02/02 11:30:08;;;;;;;10.50;9.10;;;;;;;3.71;76.46;98817.17;107784;1252;73871;-80
2023/02/02 11:32:37;;;;;;;12.30;9.40;;;;;;;3.50;76.54;98814.77;107574;1253;59424;-80
2023/02/02 11:35:14;;;;;;;14.40;10.80;;;;;;;3.36;76.63;98813.43;106675;1253;61552;-79
2023/02/02 11:37:51;;;;;;;16.80;10.70;;;;;;;3.35;77.29;98808.46;107670;1254;70498;-78
2023/02/02 11:40:35;;;;;;;15.70;11.40;;;;;;;3.40;77.24;98810.34;108312;1254;70117;-79
2023/02/02 11:43:35;;;;;;;12.50;9.70;;;;;;;3.34;76.96;98813.64;108056;1253;71431;-78
2023/02/02 11:46:05;;;;;;;11.30;9.90;;;;;;;3.29;77.75;98811.52;107694;1253;59752;-78
2023/02/02 11:48:37;;;;;;;11.20;8.70;;;;;;;3.34;77.84;98811.77;107230;1253;59617;-79
2023/02/02 11:51:06;;;;;;;12.60;9.80;;;;;;;3.44;77.42;98813.27;106131;1253;73173;-79
2023/02/02 11:53:50;;;;;;;14.30;8.70;;;;;;;3.40;76.97;98811.05;108866;1252;69915;-80